Time;durP1;ratioP1;P1;durP2;ratioP2;P2;SDS_P1;SDS_P2;PMS_P1;PMS_P2;Temp;Humidity;BMP_temperature;BMP_pressure;BME280_temperature;BME280_humidity;BME280_pressure;Samples;Min_cycle;Max_cycle;Signal;HPM_P1;HPM_P2
2022/09/14 00:02:02;;;;;;;2.90;1.70;;;;;;;;;;5074307;28;20798;-59
2022/09/14 00:04:29;;;;;;;4.63;2.43;;;;;;;;;;5074244;28;20443;-59
2022/09/14 00:06:56;;;;;;;2.63;2.27;;;;;;;;;;5074320;28;20487;-59
2022/09/14 00:09:25;;;;;;;2.37;1.70;;;;;;;;;;5074156;28;20458;-59
2022/09/14 00:11:52;;;;;;;5.07;2.57;;;;;;;;;;5074146;28;20878;-59
2022/09/14 00:14:19;;;;;;;4.50;2.73;;;;;;;;;;5074380;28;20454;-59
2022/09/14 00:16:46;;;;;;;6.90;2.20;;;;;;;;;;5073883;28;21000;-59
2022/09/14 00:19:17;;;;;;;2.90;2.30;;;;;;;;;;5074144;28;20883;-59
2022/09/14 00:21:44;;;;;;;7.13;2.70;;;;;;;;;;5073980;28;20810;-59
2022/09/14 00:24:12;;;;;;;6.73;2.60;;;;;;;;;;5073959;28;20813;-59
2022/09/14 00:26:40;;;;;;;2.67;2.27;;;;;;;;;;5073839;28;20485;-59
2022/09/14 00:29:07;;;;;;;3.17;2.13;;;;;;;;;;5073748;28;20447;-59
2022/09/14 00:31:35;;;;;;;5.23;2.40;;;;;;;;;;5073971;28;20440;-59
2022/09/14 00:34:03;;;;;;;3.37;2.43;;;;;;;;;;5073870;28;20505;-58
2022/09/14 00:36:31;;;;;;;7.13;2.70;;;;;;;;;;5073801;28;20447;-59
2022/09/14 00:38:59;;;;;;;3.10;2.70;;;;;;;;;;5073686;28;20458;-59
2022/09/14 00:41:27;;;;;;;5.80;3.00;;;;;;;;;;5073522;28;20444;-59
2022/09/14 00:43:57;;;;;;;7.40;2.87;;;;;;;;;;5072978;28;20447;-59
2022/09/14 00:46:25;;;;;;;6.17;2.83;;;;;;;;;;5073529;28;21061;-59
2022/09/14 00:48:52;;;;;;;4.00;2.97;;;;;;;;;;5073216;28;20471;-58
2022/09/14 00:51:20;;;;;;;3.30;3.00;;;;;;;;;;5073479;28;20447;-59
2022/09/14 00:53:47;;;;;;;6.03;2.83;;;;;;;;;;5073409;28;20504;-59
2022/09/14 00:56:15;;;;;;;4.13;2.93;;;;;;;;;;5073238;28;20455;-59
2022/09/14 00:58:42;;;;;;;3.10;2.77;;;;;;;;;;5073475;28;20458;-59
2022/09/14 01:01:10;;;;;;;3.53;2.90;;;;;;;;;;5073361;28;20448;-58
2022/09/14 01:03:37;;;;;;;4.37;2.53;;;;;;;;;;5073330;28;20481;-58
2022/09/14 01:06:09;;;;;;;3.13;2.80;;;;;;;;;;5073176;28;20483;-59
2022/09/14 01:08:43;;;;;;;2.60;2.40;;;;;;;;;;5073149;28;20451;-59
2022/09/14 01:11:15;;;;;;;2.90;2.60;;;;;;;;;;5073372;28;20461;-59
2022/09/14 01:13:44;;;;;;;3.63;2.27;;;;;;;;;;5073243;28;20458;-59
2022/09/14 01:16:18;;;;;;;3.53;2.73;;;;;;;;;;5073129;28;20447;-59
2022/09/14 01:18:47;;;;;;;5.00;2.67;;;;;;;;;;5073087;28;20447;-59
2022/09/14 01:21:15;;;;;;;3.50;2.67;;;;;;;;;;5072972;28;20479;-59
2022/09/14 01:23:46;;;;;;;5.40;2.90;;;;;;;;;;5073139;28;20818;-59
2022/09/14 01:26:24;;;;;;;2.90;2.60;;;;;;;;;;5073006;28;20479;-59
2022/09/14 01:28:54;;;;;;;5.37;2.90;;;;;;;;;;5073030;28;20451;-59
2022/09/14 01:31:24;;;;;;;2.83;2.60;;;;;;;;;;5072954;28;20953;-59
2022/09/14 01:33:54;;;;;;;5.90;3.07;;;;;;;;;;5073102;28;20799;-59
2022/09/14 01:36:21;;;;;;;2.83;2.23;;;;;;;;;;5073125;28;20447;-59
2022/09/14 01:38:50;;;;;;;4.27;2.77;;;;;;;;;;5072938;28;20449;-59
2022/09/14 01:41:19;;;;;;;7.33;2.93;;;;;;;;;;5072824;28;20447;-59
2022/09/14 01:43:49;;;;;;;5.37;2.50;;;;;;;;;;5072725;28;20808;-59
2022/09/14 01:46:19;;;;;;;6.63;2.77;;;;;;;;;;5072477;28;20981;-59
2022/09/14 01:48:48;;;;;;;4.47;2.93;;;;;;;;;;5072706;28;20503;-60
2022/09/14 01:51:18;;;;;;;4.80;2.70;;;;;;;;;;5072880;28;20451;-59
2022/09/14 01:53:47;;;;;;;2.53;2.37;;;;;;;;;;5072763;28;20572;-59
2022/09/14 01:56:19;;;;;;;4.60;2.60;;;;;;;;;;5075423;28;20455;-59
2022/09/14 01:58:47;;;;;;;7.80;2.70;;;;;;;;;;5076701;28;20538;-59
2022/09/14 02:01:17;;;;;;;3.70;2.43;;;;;;;;;;5076859;28;20877;-59
2022/09/14 02:03:48;;;;;;;2.77;2.33;;;;;;;;;;5076606;28;20927;-59
2022/09/14 02:06:18;;;;;;;5.17;2.30;;;;;;;;;;5076987;28;20510;-59
2022/09/14 02:08:46;;;;;;;4.43;2.80;;;;;;;;;;5076434;28;20934;-60
2022/09/14 02:11:13;;;;;;;3.00;2.67;;;;;;;;;;5076312;28;20993;-59
2022/09/14 02:13:39;;;;;;;5.97;3.00;;;;;;;;;;5076517;28;20447;-59
2022/09/14 02:16:07;;;;;;;3.00;2.70;;;;;;;;;;5076479;28;20447;-59
2022/09/14 02:18:34;;;;;;;5.03;2.83;;;;;;;;;;5076435;28;20479;-59
2022/09/14 02:21:04;;;;;;;4.43;2.83;;;;;;;;;;5076354;28;20534;-59
2022/09/14 02:23:31;;;;;;;4.73;2.83;;;;;;;;;;5076323;28;20447;-59
2022/09/14 02:25:58;;;;;;;3.57;2.37;;;;;;;;;;5076052;28;20447;-58
2022/09/14 02:28:25;;;;;;;3.03;2.80;;;;;;;;;;5076311;28;20447;-60
2022/09/14 02:30:55;;;;;;;4.60;2.80;;;;;;;;;;5076199;28;20447;-59
2022/09/14 02:33:26;;;;;;;4.70;2.83;;;;;;;;;;5076123;28;20443;-59
2022/09/14 02:35:54;;;;;;;4.10;3.40;;;;;;;;;;5076013;28;20550;-59
2022/09/14 02:38:35;;;;;;;4.43;3.20;;;;;;;;;;5075833;28;20458;-59
2022/09/14 02:41:04;;;;;;;6.27;3.37;;;;;;;;;;5076098;28;20446;-59
2022/09/14 02:43:34;;;;;;;4.43;3.23;;;;;;;;;;5075969;28;20443;-59
2022/09/14 02:46:05;;;;;;;5.40;3.23;;;;;;;;;;5075886;28;20454;-59
2022/09/14 02:48:36;;;;;;;3.23;2.90;;;;;;;;;;5074946;28;20573;-59
2022/09/14 02:51:05;;;;;;;3.00;2.73;;;;;;;;;;5074502;28;20451;-60
2022/09/14 02:53:37;;;;;;;8.33;3.67;;;;;;;;;;5074629;28;20451;-59
2022/09/14 02:56:06;;;;;;;3.30;3.10;;;;;;;;;;5074577;28;20452;-59
2022/09/14 02:58:34;;;;;;;3.93;3.10;;;;;;;;;;5075320;28;20538;-60
2022/09/14 03:01:01;;;;;;;4.33;3.50;;;;;;;;;;5074438;28;20451;-59
2022/09/14 03:03:28;;;;;;;6.40;3.30;;;;;;;;;;5074281;28;20881;-59
2022/09/14 03:05:56;;;;;;;5.67;3.03;;;;;;;;;;5074001;28;20535;-59
2022/09/14 03:08:23;;;;;;;5.53;3.30;;;;;;;;;;5074352;28;20985;-59
2022/09/14 03:10:51;;;;;;;5.33;3.10;;;;;;;;;;5074569;28;20447;-59
2022/09/14 03:13:18;;;;;;;2.90;2.70;;;;;;;;;;5074208;28;20454;-59
2022/09/14 03:15:45;;;;;;;5.67;3.67;;;;;;;;;;5074053;28;20447;-60
2022/09/14 03:18:12;;;;;;;3.57;3.07;;;;;;;;;;5074327;28;20458;-58
2022/09/14 03:20:39;;;;;;;4.53;3.03;;;;;;;;;;5074238;28;20458;-59
2022/09/14 03:23:09;;;;;;;4.40;3.27;;;;;;;;;;5074093;28;20816;-59
2022/09/14 03:25:36;;;;;;;6.73;3.30;;;;;;;;;;5074102;28;20451;-59
2022/09/14 03:28:05;;;;;;;5.80;3.00;;;;;;;;;;5073865;28;20501;-59
2022/09/14 03:30:32;;;;;;;3.80;3.03;;;;;;;;;;5074088;28;20483;-59
2022/09/14 03:32:59;;;;;;;4.43;2.97;;;;;;;;;;5074280;28;20822;-60
2022/09/14 03:35:29;;;;;;;5.50;3.37;;;;;;;;;;5073933;28;20892;-59
2022/09/14 03:37:56;;;;;;;6.40;3.57;;;;;;;;;;5073886;28;20452;-59
2022/09/14 03:40:23;;;;;;;3.63;3.10;;;;;;;;;;5073780;28;20447;-59
2022/09/14 03:42:51;;;;;;;5.17;3.60;;;;;;;;;;5073609;28;20443;-58
2022/09/14 03:45:20;;;;;;;4.20;3.60;;;;;;;;;;5073837;28;20450;-59
2022/09/14 03:47:47;;;;;;;5.03;2.90;;;;;;;;;;5040458;28;957098;-59
2022/09/14 03:50:14;;;;;;;5.13;3.20;;;;;;;;;;5074665;28;20189;-59
2022/09/14 03:52:41;;;;;;;4.23;3.93;;;;;;;;;;5074487;28;20974;-59
2022/09/14 03:55:09;;;;;;;5.63;3.37;;;;;;;;;;5074595;28;20447;-59
2022/09/14 03:57:36;;;;;;;4.93;3.30;;;;;;;;;;5074369;28;20532;-59
2022/09/14 04:00:04;;;;;;;4.43;3.30;;;;;;;;;;5074560;28;20448;-59
2022/09/14 04:02:32;;;;;;;5.50;3.20;;;;;;;;;;5074466;28;20470;-60
2022/09/14 04:04:59;;;;;;;2.77;2.50;;;;;;;;;;5074611;28;20454;-59
2022/09/14 04:07:26;;;;;;;3.93;3.53;;;;;;;;;;5074413;28;20570;-59
2022/09/14 04:09:53;;;;;;;6.00;3.67;;;;;;;;;;5074138;28;20453;-59
2022/09/14 04:12:20;;;;;;;4.73;3.03;;;;;;;;;;5074056;28;20542;-59
2022/09/14 04:14:47;;;;;;;4.30;3.90;;;;;;;;;;5074480;28;20448;-59
2022/09/14 04:17:16;;;;;;;7.93;3.80;;;;;;;;;;5073844;28;20455;-59
2022/09/14 04:19:44;;;;;;;8.70;4.20;;;;;;;;;;5073932;28;20452;-59
2022/09/14 04:22:11;;;;;;;3.80;3.40;;;;;;;;;;5073910;28;20884;-59
2022/09/14 04:24:38;;;;;;;5.23;3.40;;;;;;;;;;5073731;28;20443;-58
2022/09/14 04:27:05;;;;;;;9.10;5.07;;;;;;;;;;5073558;28;20993;-59
2022/09/14 04:29:32;;;;;;;7.07;3.40;;;;;;;;;;5073911;28;20448;-59
2022/09/14 04:31:59;;;;;;;3.57;3.27;;;;;;;;;;5073733;28;20448;-59
2022/09/14 04:34:26;;;;;;;3.97;3.47;;;;;;;;;;5073798;28;20447;-58
2022/09/14 04:36:54;;;;;;;4.27;3.87;;;;;;;;;;5073690;28;20451;-59
2022/09/14 04:39:21;;;;;;;4.60;3.47;;;;;;;;;;5073761;28;20806;-59
2022/09/14 04:41:48;;;;;;;8.50;3.40;;;;;;;;;;5073704;28;20886;-60
2022/09/14 04:44:15;;;;;;;4.70;3.20;;;;;;;;;;5073847;28;20453;-59
2022/09/14 04:46:42;;;;;;;3.70;3.40;;;;;;;;;;5073486;28;20470;-59
2022/09/14 04:49:10;;;;;;;4.53;4.10;;;;;;;;;;5073451;28;20479;-58
2022/09/14 04:51:37;;;;;;;4.77;3.10;;;;;;;;;;5073213;28;20531;-60
2022/09/14 04:54:07;;;;;;;5.10;3.20;;;;;;;;;;5073445;28;20486;-58
2022/09/14 04:56:34;;;;;;;5.27;3.30;;;;;;;;;;5073429;28;20505;-59
2022/09/14 04:59:03;;;;;;;5.93;3.53;;;;;;;;;;5073365;28;20525;-59
2022/09/14 05:01:30;;;;;;;7.70;3.30;;;;;;;;;;5073182;28;20502;-59
2022/09/14 05:03:57;;;;;;;6.20;3.30;;;;;;;;;;5073117;28;20902;-59
2022/09/14 05:06:25;;;;;;;4.90;4.13;;;;;;;;;;5072978;28;20451;-59
2022/09/14 05:08:52;;;;;;;6.87;2.97;;;;;;;;;;5073073;28;20483;-59
2022/09/14 05:11:22;;;;;;;5.70;3.17;;;;;;;;;;5073156;28;20454;-58
2022/09/14 05:13:49;;;;;;;3.97;3.13;;;;;;;;;;5072961;28;20453;-59
2022/09/14 05:16:17;;;;;;;3.83;2.83;;;;;;;;;;5073151;28;20454;-59
2022/09/14 05:18:44;;;;;;;5.37;3.07;;;;;;;;;;5072991;28;20798;-59
2022/09/14 05:21:12;;;;;;;3.23;2.97;;;;;;;;;;5073042;28;20534;-60
2022/09/14 05:23:39;;;;;;;4.90;3.20;;;;;;;;;;5073007;28;20454;-59
2022/09/14 05:26:06;;;;;;;4.07;2.77;;;;;;;;;;5072739;28;20454;-59
2022/09/14 05:28:35;;;;;;;5.17;2.83;;;;;;;;;;5072523;28;21055;-59
2022/09/14 05:31:05;;;;;;;2.77;2.30;;;;;;;;;;5072858;28;20447;-59
2022/09/14 05:33:32;;;;;;;4.50;3.40;;;;;;;;;;5072847;28;20455;-59
2022/09/14 05:36:00;;;;;;;10.27;3.43;;;;;;;;;;5072411;28;20993;-60
2022/09/14 05:38:28;;;;;;;3.30;2.50;;;;;;;;;;5072693;28;20807;-59
2022/09/14 05:40:55;;;;;;;5.37;2.60;;;;;;;;;;5072632;28;20566;-58
2022/09/14 05:43:22;;;;;;;4.20;2.60;;;;;;;;;;5072600;28;20454;-59
2022/09/14 05:45:50;;;;;;;3.30;3.00;;;;;;;;;;5072311;28;20459;-58
2022/09/14 05:48:18;;;;;;;5.47;2.70;;;;;;;;;;5072433;28;20625;-59
2022/09/14 05:50:45;;;;;;;3.13;2.80;;;;;;;;;;5072378;28;20974;-59
2022/09/14 05:53:12;;;;;;;3.90;2.80;;;;;;;;;;5072576;28;20458;-59
2022/09/14 05:55:39;;;;;;;7.00;2.67;;;;;;;;;;5072560;28;20440;-59
2022/09/14 05:58:06;;;;;;;2.67;2.47;;;;;;;;;;5072437;28;20950;-59
2022/09/14 06:00:32;;;;;;;4.33;2.60;;;;;;;;;;5072336;28;20443;-59
2022/09/14 06:03:01;;;;;;;7.90;2.90;;;;;;;;;;5072386;28;20476;-59
2022/09/14 06:05:28;;;;;;;4.30;2.70;;;;;;;;;;5072340;28;20989;-59
2022/09/14 06:07:55;;;;;;;8.00;3.37;;;;;;;;;;5072538;28;20874;-59
2022/09/14 06:10:22;;;;;;;4.10;3.10;;;;;;;;;;5072412;28;20849;-59
2022/09/14 06:12:49;;;;;;;3.37;2.70;;;;;;;;;;5072372;28;20449;-59
2022/09/14 06:15:16;;;;;;;7.23;3.00;;;;;;;;;;5072384;28;20542;-59
2022/09/14 06:17:43;;;;;;;2.53;2.33;;;;;;;;;;5072648;28;20537;-59
2022/09/14 06:20:11;;;;;;;4.53;2.60;;;;;;;;;;5072438;28;20462;-59
2022/09/14 06:22:38;;;;;;;3.53;2.50;;;;;;;;;;5072332;28;20458;-60
2022/09/14 06:25:06;;;;;;;4.07;2.43;;;;;;;;;;5072188;28;20447;-59
2022/09/14 06:27:33;;;;;;;3.90;3.13;;;;;;;;;;5071937;28;20985;-59
2022/09/14 06:30:00;;;;;;;5.10;2.20;;;;;;;;;;5072261;28;20483;-59
2022/09/14 06:32:27;;;;;;;4.20;2.87;;;;;;;;;;5072299;28;20455;-59
2022/09/14 06:34:54;;;;;;;3.97;2.90;;;;;;;;;;5072218;28;20802;-59
2022/09/14 06:37:22;;;;;;;5.30;2.47;;;;;;;;;;5072272;28;20530;-59
2022/09/14 06:39:49;;;;;;;5.47;3.03;;;;;;;;;;5072007;28;20444;-59
2022/09/14 06:42:16;;;;;;;6.17;3.07;;;;;;;;;;5074503;28;20443;-59
2022/09/14 06:44:43;;;;;;;8.00;3.77;;;;;;;;;;5075857;28;20443;-59
2022/09/14 06:47:10;;;;;;;8.40;3.13;;;;;;;;;;5075605;28;20542;-59
2022/09/14 06:49:36;;;;;;;5.00;2.40;;;;;;;;;;5075550;28;20483;-59
2022/09/14 06:52:03;;;;;;;4.53;2.90;;;;;;;;;;5075800;28;20453;-59
2022/09/14 06:54:32;;;;;;;6.93;2.83;;;;;;;;;;5075434;28;20498;-59
2022/09/14 06:56:59;;;;;;;5.80;2.57;;;;;;;;;;5075958;28;20863;-59
2022/09/14 06:59:26;;;;;;;7.03;3.00;;;;;;;;;;5075477;28;20458;-59
2022/09/14 07:01:53;;;;;;;4.10;2.20;;;;;;;;;;5075566;28;20538;-59
2022/09/14 07:04:20;;;;;;;6.17;3.13;;;;;;;;;;5075387;28;20487;-59
2022/09/14 07:06:47;;;;;;;6.47;2.93;;;;;;;;;;5075304;28;21019;-59
2022/09/14 07:09:15;;;;;;;6.17;2.73;;;;;;;;;;5075028;28;20485;-59
2022/09/14 07:11:43;;;;;;;5.60;3.37;;;;;;;;;;5075404;28;20444;-60
2022/09/14 07:14:11;;;;;;;3.60;2.53;;;;;;;;;;5075315;28;20447;-59
2022/09/14 07:16:38;;;;;;;4.03;2.17;;;;;;;;;;5075202;28;20534;-59
2022/09/14 07:19:06;;;;;;;4.70;2.30;;;;;;;;;;5075094;28;20455;-59
2022/09/14 07:21:34;;;;;;;4.40;2.43;;;;;;;;;;5074908;28;20447;-59
2022/09/14 07:24:01;;;;;;;3.63;2.90;;;;;;;;;;5074911;28;20453;-59
2022/09/14 07:26:30;;;;;;;5.60;2.53;;;;;;;;;;5076330;28;20447;-59
2022/09/14 07:28:58;;;;;;;2.63;2.27;;;;;;;;;;5059166;28;21013;-58
2022/09/14 07:31:26;;;;;;;3.37;2.43;;;;;;;;;;5072476;28;20489;-67
2022/09/14 07:33:54;;;;;;;5.90;2.43;;;;;;;;;;5072725;28;20824;-51
2022/09/14 07:36:21;;;;;;;6.40;3.13;;;;;;;;;;5072139;28;20464;-61
2022/09/14 07:38:48;;;;;;;6.30;2.50;;;;;;;;;;5074721;28;20447;-59
2022/09/14 07:41:15;;;;;;;4.97;2.23;;;;;;;;;;5073321;28;20473;-60
2022/09/14 07:43:42;;;;;;;6.43;2.60;;;;;;;;;;5074054;28;20962;-56
2022/09/14 07:46:10;;;;;;;3.03;1.80;;;;;;;;;;5073720;28;20443;-59
2022/09/14 07:48:37;;;;;;;4.67;2.33;;;;;;;;;;5064131;28;20483;-62
2022/09/14 07:51:05;;;;;;;5.70;2.20;;;;;;;;;;5074130;28;20930;-59
2022/09/14 07:53:32;;;;;;;4.03;2.43;;;;;;;;;;5068883;28;20462;-60
2022/09/14 07:56:00;;;;;;;6.70;3.00;;;;;;;;;;5069771;28;20455;-60
2022/09/14 07:58:27;;;;;;;4.30;2.20;;;;;;;;;;5074123;28;20458;-60
2022/09/14 08:00:58;;;;;;;4.57;2.40;;;;;;;;;;5069642;28;20834;-61
2022/09/14 08:03:27;;;;;;;7.60;2.23;;;;;;;;;;5063289;28;21029;-59
2022/09/14 08:06:01;;;;;;;4.23;1.60;;;;;;;;;;5072176;28;20535;-60
2022/09/14 08:08:31;;;;;;;6.20;2.07;;;;;;;;;;5069101;28;20498;-59
2022/09/14 08:11:04;;;;;;;2.93;1.93;;;;;;;;;;5074873;28;20452;-60
2022/09/14 08:13:31;;;;;;;6.40;2.40;;;;;;;;;;5073936;28;20513;-60
2022/09/14 08:15:59;;;;;;;5.97;1.90;;;;;;;;;;5072887;28;20448;-61
2022/09/14 08:18:27;;;;;;;8.33;2.43;;;;;;;;;;5070019;28;20514;-60
2022/09/14 08:20:54;;;;;;;6.77;2.60;;;;;;;;;;5072499;28;20505;-61
2022/09/14 08:23:21;;;;;;;7.67;2.00;;;;;;;;;;5073559;28;20448;-61
2022/09/14 08:25:48;;;;;;;5.70;2.07;;;;;;;;;;5073594;28;20497;-60
2022/09/14 08:28:15;;;;;;;6.00;2.17;;;;;;;;;;5071895;28;20552;-59
2022/09/14 08:30:42;;;;;;;3.83;2.00;;;;;;;;;;5065840;28;20475;-61
2022/09/14 08:33:09;;;;;;;4.10;1.83;;;;;;;;;;5069298;28;20448;-61
2022/09/14 08:35:43;;;;;;;5.20;2.03;;;;;;;;;;5073557;28;20539;-59
2022/09/14 08:38:10;;;;;;;5.27;1.80;;;;;;;;;;5071132;28;20487;-60
2022/09/14 08:40:43;;;;;;;5.20;1.90;;;;;;;;;;5072268;28;20452;-60
2022/09/14 08:43:11;;;;;;;4.20;1.80;;;;;;;;;;5075481;28;20825;-61
2022/09/14 08:45:39;;;;;;;7.43;3.43;;;;;;;;;;5087980;28;20446;-60
2022/09/14 08:48:09;;;;;;;6.23;1.57;;;;;;;;;;5073267;28;20468;-61
2022/09/14 08:50:36;;;;;;;4.67;1.70;;;;;;;;;;5073259;28;20882;-60
2022/09/14 08:53:05;;;;;;;3.40;1.57;;;;;;;;;;5072924;28;20480;-62
2022/09/14 08:55:33;;;;;;;8.13;2.43;;;;;;;;;;5070901;28;20456;-60
2022/09/14 08:58:04;;;;;;;7.60;1.90;;;;;;;;;;5072156;28;20483;-60
2022/09/14 09:00:40;;;;;;;7.53;1.90;;;;;;;;;;5073201;28;20452;-61
2022/09/14 09:03:16;;;;;;;4.43;1.53;;;;;;;;;;5073160;28;20948;-58
2022/09/14 09:05:47;;;;;;;5.60;1.97;;;;;;;;;;5072800;28;20457;-59
2022/09/14 09:08:19;;;;;;;7.53;2.80;;;;;;;;;;5072733;28;20440;-59
2022/09/14 09:10:47;;;;;;;3.20;1.97;;;;;;;;;;5073167;28;20530;-60
2022/09/14 09:13:17;;;;;;;10.93;2.53;;;;;;;;;;5073030;28;20473;-59
2022/09/14 09:15:46;;;;;;;5.20;2.20;;;;;;;;;;5072979;28;20509;-59
2022/09/14 09:18:13;;;;;;;3.67;1.50;;;;;;;;;;5072868;28;20943;-59
2022/09/14 09:20:44;;;;;;;39.47;27.47;;;;;;;;;;5072958;28;20550;-59
2022/09/14 09:23:13;;;;;;;5.23;2.20;;;;;;;;;;5073169;28;20447;-59
2022/09/14 09:25:56;;;;;;;7.97;2.63;;;;;;;;;;5072898;28;20454;-59
2022/09/14 09:28:24;;;;;;;7.53;1.80;;;;;;;;;;5072739;28;21008;-59
2022/09/14 09:30:51;;;;;;;5.50;2.27;;;;;;;;;;5072775;28;20451;-59
2022/09/14 09:33:21;;;;;;;6.07;1.80;;;;;;;;;;5072807;28;20443;-59
2022/09/14 09:35:48;;;;;;;5.77;1.77;;;;;;;;;;5072706;28;20446;-59
2022/09/14 09:38:16;;;;;;;4.50;1.73;;;;;;;;;;5072995;28;20542;-59
2022/09/14 09:40:44;;;;;;;5.60;2.50;;;;;;;;;;5072771;28;20554;-59
2022/09/14 09:43:13;;;;;;;2.53;1.50;;;;;;;;;;5072521;28;20443;-60
2022/09/14 09:45:48;;;;;;;7.90;1.93;;;;;;;;;;5072749;28;20471;-59
2022/09/14 09:48:15;;;;;;;4.20;1.67;;;;;;;;;;5072373;28;20470;-59
2022/09/14 09:50:47;;;;;;;8.53;2.10;;;;;;;;;;5072546;28;20462;-59
2022/09/14 09:53:16;;;;;;;4.43;2.37;;;;;;;;;;5072595;28;20542;-59
2022/09/14 09:55:47;;;;;;;4.80;1.77;;;;;;;;;;5072511;28;20454;-59
2022/09/14 09:58:22;;;;;;;4.33;1.43;;;;;;;;;;5072690;28;20459;-59
2022/09/14 10:00:56;;;;;;;4.33;1.73;;;;;;;;;;5072506;28;20454;-59
2022/09/14 10:03:27;;;;;;;4.77;1.60;;;;;;;;;;5072514;28;20815;-59
2022/09/14 10:06:00;;;;;;;9.87;1.67;;;;;;;;;;5072475;28;20451;-59
2022/09/14 10:08:33;;;;;;;4.33;1.83;;;;;;;;;;5072182;28;20523;-59
2022/09/14 10:11:00;;;;;;;4.83;1.60;;;;;;;;;;5072565;28;20954;-59
2022/09/14 10:13:30;;;;;;;6.93;1.70;;;;;;;;;;5072166;28;21008;-60
2022/09/14 10:16:05;;;;;;;8.43;2.03;;;;;;;;;;5072992;28;20491;-59
2022/09/14 10:18:34;;;;;;;2.90;1.30;;;;;;;;;;5088889;28;20926;-59
2022/09/14 10:21:08;;;;;;;6.73;1.90;;;;;;;;;;5076026;28;20451;-59
2022/09/14 10:23:36;;;;;;;6.13;1.70;;;;;;;;;;5080926;28;20442;-60
2022/09/14 10:26:18;;;;;;;5.43;1.73;;;;;;;;;;5096591;28;20473;-59
2022/09/14 10:28:47;;;;;;;3.73;1.60;;;;;;;;;;5096180;28;20446;-59
2022/09/14 10:31:18;;;;;;;4.43;1.83;;;;;;;;;;5096132;28;20539;-60
2022/09/14 10:33:46;;;;;;;5.77;1.47;;;;;;;;;;5096439;28;20817;-59
2022/09/14 10:36:14;;;;;;;5.67;1.93;;;;;;;;;;5096277;28;20444;-59
2022/09/14 10:38:43;;;;;;;3.87;1.40;;;;;;;;;;5096074;28;20449;-59
2022/09/14 10:41:19;;;;;;;3.70;2.53;;;;;;;;;;5096088;28;20453;-59
2022/09/14 10:44:04;;;;;;;4.93;1.53;;;;;;;;;;5095979;28;20446;-58
2022/09/14 10:46:36;;;;;;;3.97;1.77;;;;;;;;;;5096202;28;20892;-58
2022/09/14 10:49:14;;;;;;;6.63;1.57;;;;;;;;;;5095826;28;20478;-59
2022/09/14 10:51:50;;;;;;;4.73;1.43;;;;;;;;;;5095711;28;20473;-59
2022/09/14 10:54:28;;;;;;;4.90;1.80;;;;;;;;;;5095631;28;20449;-59
2022/09/14 10:57:08;;;;;;;6.83;1.90;;;;;;;;;;5095885;28;20472;-59
2022/09/14 10:59:40;;;;;;;4.50;2.10;;;;;;;;;;5095695;28;20461;-59
2022/09/14 11:02:19;;;;;;;8.10;2.17;;;;;;;;;;5095926;28;20866;-59
2022/09/14 11:04:54;;;;;;;5.47;1.50;;;;;;;;;;5095646;28;20892;-59
2022/09/14 11:07:23;;;;;;;2.93;1.80;;;;;;;;;;5095748;28;20536;-59
2022/09/14 11:09:53;;;;;;;4.20;2.10;;;;;;;;;;5095455;28;20478;-59
2022/09/14 11:12:24;;;;;;;5.77;1.50;;;;;;;;;;5095445;28;20984;-61
2022/09/14 11:14:58;;;;;;;3.30;1.70;;;;;;;;;;5095280;28;20469;-61
2022/09/14 11:17:44;;;;;;;3.73;1.60;;;;;;;;;;5095489;28;20442;-62
2022/09/14 11:20:17;;;;;;;6.80;2.10;;;;;;;;;;5095423;28;20813;-61
2022/09/14 11:22:48;;;;;;;4.20;1.70;;;;;;;;;;5095364;28;20541;-61
2022/09/14 11:25:17;;;;;;;9.07;1.77;;;;;;;;;;5095311;28;20451;-62
2022/09/14 11:27:46;;;;;;;2.90;1.43;;;;;;;;;;5095121;28;20496;-61
2022/09/14 11:30:17;;;;;;;3.67;1.80;;;;;;;;;;5095031;28;20485;-61
2022/09/14 11:32:47;;;;;;;6.60;1.83;;;;;;;;;;5095141;28;20520;-61
2022/09/14 11:35:18;;;;;;;4.47;1.47;;;;;;;;;;5095137;28;20446;-61
2022/09/14 11:37:47;;;;;;;3.73;2.30;;;;;;;;;;5095026;28;20878;-62
2022/09/14 11:40:17;;;;;;;2.80;1.57;;;;;;;;;;5095091;28;20441;-61
2022/09/14 11:42:46;;;;;;;2.37;1.63;;;;;;;;;;5094882;28;20957;-62
2022/09/14 11:45:21;;;;;;;4.00;1.70;;;;;;;;;;5094899;28;20442;-61
2022/09/14 11:47:52;;;;;;;6.70;1.60;;;;;;;;;;5094763;28;20988;-61
2022/09/14 11:50:21;;;;;;;3.43;1.30;;;;;;;;;;5094435;28;20508;-61
2022/09/14 11:52:49;;;;;;;4.20;1.80;;;;;;;;;;5094588;28;20449;-61
2022/09/14 11:55:17;;;;;;;5.37;1.90;;;;;;;;;;5094601;28;20499;-61
2022/09/14 11:57:45;;;;;;;2.53;1.40;;;;;;;;;;5085893;28;20500;-61
2022/09/14 12:00:42;;;;;;;1.87;1.00;;;;;;;;;;5074181;28;20451;-61
2022/09/14 12:03:14;;;;;;;4.70;1.50;;;;;;;;;;5073793;28;20451;-61
2022/09/14 12:05:43;;;;;;;4.07;1.57;;;;;;;;;;5074290;28;20440;-61
2022/09/14 12:08:25;;;;;;;2.90;1.40;;;;;;;;;;5074313;28;20455;-61
2022/09/14 12:11:05;;;;;;;2.10;1.40;;;;;;;;;;5071781;28;20475;-61
2022/09/14 12:13:33;;;;;;;2.53;1.43;;;;;;;;;;5071222;28;20810;-61
2022/09/14 12:16:06;;;;;;;9.50;1.47;;;;;;;;;;5073525;28;20449;-61
2022/09/14 12:18:33;;;;;;;10.97;2.10;;;;;;;;;;5071214;28;20454;-61
2022/09/14 12:21:01;;;;;;;4.33;1.70;;;;;;;;;;5073371;28;20814;-61
2022/09/14 12:23:46;;;;;;;3.90;1.80;;;;;;;;;;5073188;28;20479;-61
2022/09/14 12:26:28;;;;;;;1.97;1.20;;;;;;;;;;5071344;28;20530;-62
2022/09/14 12:28:56;;;;;;;2.30;1.47;;;;;;;;;;5070741;28;20447;-62
2022/09/14 12:31:33;;;;;;;5.90;1.47;;;;;;;;;;5073209;28;20486;-62
2022/09/14 12:34:05;;;;;;;4.20;1.50;;;;;;;;;;5073174;28;20461;-62
2022/09/14 12:36:52;;;;;;;4.33;1.30;;;;;;;;;;5073382;28;20455;-62
2022/09/14 12:39:24;;;;;;;3.47;1.47;;;;;;;;;;5072945;28;20447;-62
2022/09/14 12:41:58;;;;;;;2.57;1.63;;;;;;;;;;5073103;28;20539;-62
2022/09/14 12:44:29;;;;;;;5.50;1.77;;;;;;;;;;5073488;28;20504;-62
2022/09/14 12:46:58;;;;;;;3.27;1.10;;;;;;;;;;5073576;28;20459;-62
2022/09/14 12:49:29;;;;;;;4.97;1.60;;;;;;;;;;5070187;28;20458;-62
2022/09/14 12:51:57;;;;;;;3.67;1.30;;;;;;;;;;5073558;28;20511;-62
2022/09/14 12:54:28;;;;;;;4.10;1.50;;;;;;;;;;5072532;28;20935;-62
2022/09/14 12:57:00;;;;;;;2.60;1.07;;;;;;;;;;5070467;28;20439;-62
2022/09/14 12:59:31;;;;;;;4.20;1.47;;;;;;;;;;5067492;28;20444;-62
2022/09/14 13:02:03;;;;;;;2.47;1.70;;;;;;;;;;5054230;28;20452;-62
2022/09/14 13:04:32;;;;;;;4.20;1.70;;;;;;;;;;5052729;28;20785;-62
2022/09/14 13:07:00;;;;;;;3.60;1.50;;;;;;;;;;5052666;28;20880;-62
2022/09/14 13:09:28;;;;;;;7.97;1.27;;;;;;;;;;5051675;28;20448;-62
2022/09/14 13:11:57;;;;;;;3.20;1.50;;;;;;;;;;5053137;28;20452;-62
2022/09/14 13:14:25;;;;;;;1.90;1.30;;;;;;;;;;5053084;28;20448;-62
2022/09/14 13:16:53;;;;;;;4.10;1.40;;;;;;;;;;5052904;28;20448;-62
2022/09/14 13:19:22;;;;;;;3.23;1.23;;;;;;;;;;5052914;28;20449;-62
2022/09/14 13:21:50;;;;;;;3.10;1.40;;;;;;;;;;5052817;28;20444;-62
2022/09/14 13:24:29;;;;;;;4.20;1.50;;;;;;;;;;5052634;28;20803;-62
2022/09/14 13:26:57;;;;;;;2.30;1.27;;;;;;;;;;5052900;28;20848;-62
2022/09/14 13:29:25;;;;;;;2.97;1.47;;;;;;;;;;5052845;28;20876;-62
2022/09/14 13:31:53;;;;;;;5.67;1.70;;;;;;;;;;5052583;28;20944;-62
2022/09/14 13:34:23;;;;;;;5.13;1.30;;;;;;;;;;5052707;28;20440;-62
2022/09/14 13:36:50;;;;;;;4.10;1.70;;;;;;;;;;5052553;28;20448;-62
2022/09/14 13:39:23;;;;;;;2.50;1.20;;;;;;;;;;5052819;28;20445;-62
2022/09/14 13:41:50;;;;;;;4.30;1.50;;;;;;;;;;5052640;28;20456;-62
2022/09/14 13:44:17;;;;;;;3.23;1.50;;;;;;;;;;5052395;28;20452;-62
2022/09/14 13:46:44;;;;;;;2.93;1.47;;;;;;;;;;5052360;28;20815;-62
2022/09/14 13:49:13;;;;;;;2.50;1.10;;;;;;;;;;5052540;28;20810;-62
2022/09/14 13:51:41;;;;;;;3.47;1.30;;;;;;;;;;5056104;28;20510;-62
2022/09/14 13:54:18;;;;;;;5.60;1.97;;;;;;;;;;5056719;28;20452;-62
2022/09/14 13:56:46;;;;;;;4.93;2.40;;;;;;;;;;5056688;28;20454;-62
2022/09/14 13:59:17;;;;;;;4.17;1.57;;;;;;;;;;5056804;28;20495;-62
2022/09/14 14:01:50;;;;;;;4.43;1.50;;;;;;;;;;5056396;28;20503;-62
2022/09/14 14:04:23;;;;;;;4.83;1.87;;;;;;;;;;5056586;28;20459;-62
2022/09/14 14:07:02;;;;;;;5.70;1.97;;;;;;;;;;5056258;28;20452;-61
2022/09/14 14:09:38;;;;;;;4.50;1.20;;;;;;;;;;5056462;28;20452;-62
2022/09/14 14:12:05;;;;;;;3.03;1.20;;;;;;;;;;5056166;28;20898;-62
2022/09/14 14:14:32;;;;;;;2.97;1.63;;;;;;;;;;5056195;28;20951;-62
2022/09/14 14:17:11;;;;;;;2.17;1.30;;;;;;;;;;5056278;28;20452;-62
2022/09/14 14:19:39;;;;;;;2.10;1.43;;;;;;;;;;5056230;28;20450;-62
2022/09/14 14:22:16;;;;;;;2.67;1.43;;;;;;;;;;5056153;28;20452;-62
2022/09/14 14:24:44;;;;;;;3.10;1.50;;;;;;;;;;5056059;28;20792;-62
2022/09/14 14:27:22;;;;;;;4.77;1.80;;;;;;;;;;5056100;28;20454;-62
2022/09/14 14:29:51;;;;;;;2.83;1.70;;;;;;;;;;5056102;28;20458;-62
2022/09/14 14:32:18;;;;;;;3.30;1.97;;;;;;;;;;5056010;28;20455;-62
2022/09/14 14:34:45;;;;;;;2.53;1.90;;;;;;;;;;5055964;28;20820;-62
2022/09/14 14:37:14;;;;;;;5.03;1.33;;;;;;;;;;5055839;28;20977;-62
2022/09/14 14:39:41;;;;;;;3.90;1.70;;;;;;;;;;5056051;28;20488;-62
2022/09/14 14:42:08;;;;;;;6.00;2.47;;;;;;;;;;5055844;28;20458;-62
2022/09/14 14:44:35;;;;;;;2.03;1.47;;;;;;;;;;5055708;28;20479;-62
2022/09/14 14:47:02;;;;;;;2.70;1.60;;;;;;;;;;5055633;28;20542;-62
2022/09/14 14:49:29;;;;;;;3.00;1.73;;;;;;;;;;5056211;28;20452;-62
2022/09/14 14:51:56;;;;;;;3.13;1.50;;;;;;;;;;5055794;28;20832;-62
2022/09/14 14:54:24;;;;;;;5.57;2.40;;;;;;;;;;5055716;28;20448;-62
2022/09/14 14:56:51;;;;;;;4.40;1.53;;;;;;;;;;5055703;28;20448;-62